sensor_id;sensor_type;location;lat;lon;timestamp;pressure;altitude;pressure_sealevel;temperature;humidity
55410;BME280;41279;43.546;16.426;2022-08-19T00:00:31;53383.41;;;-146.77;58.50
55410;BME280;41279;43.546;16.426;2022-08-19T00:02:57;53389.44;;;-146.77;57.19
55410;BME280;41279;43.546;16.426;2022-08-19T00:05:22;53363.41;;;-146.77;56.64
55410;BME280;41279;43.546;16.426;2022-08-19T00:07:48;53383.41;;;-146.77;55.13
55410;BME280;41279;43.546;16.426;2022-08-19T00:10:15;53347.38;;;-146.77;54.71
55410;BME280;41279;43.546;16.426;2022-08-19T00:12:41;53315.34;;;-146.77;55.02
55410;BME280;41279;43.546;16.426;2022-08-19T00:15:10;53359.41;;;-146.77;55.40
55410;BME280;41279;43.546;16.426;2022-08-19T00:17:42;53315.34;;;-146.77;55.10
55410;BME280;41279;43.546;16.426;2022-08-19T00:20:11;53357.38;;;-146.77;53.80
55410;BME280;41279;43.546;16.426;2022-08-19T00:22:38;53379.41;;;-146.77;53.80
55410;BME280;41279;43.546;16.426;2022-08-19T00:25:06;53423.47;;;-146.77;52.81
55410;BME280;41279;43.546;16.426;2022-08-19T00:27:32;53393.44;;;-146.77;52.29
55410;BME280;41279;43.546;16.426;2022-08-19T00:29:57;53401.44;;;-146.77;52.29
55410;BME280;41279;43.546;16.426;2022-08-19T00:32:24;53361.41;;;-146.77;51.93
55410;BME280;41279;43.546;16.426;2022-08-19T00:34:50;53381.41;;;-146.77;51.62
55410;BME280;41279;43.546;16.426;2022-08-19T00:37:18;53359.41;;;-146.77;52.75
55410;BME280;41279;43.546;16.426;2022-08-19T00:39:44;53409.47;;;-146.77;53.15
55410;BME280;41279;43.546;16.426;2022-08-19T00:42:09;53361.41;;;-146.77;53.07
55410;BME280;41279;43.546;16.426;2022-08-19T00:44:35;53355.38;;;-146.77;53.04
55410;BME280;41279;43.546;16.426;2022-08-19T00:47:00;53347.38;;;-146.77;51.85
55410;BME280;41279;43.546;16.426;2022-08-19T00:49:32;53375.41;;;-146.77;52.82
55410;BME280;41279;43.546;16.426;2022-08-19T00:52:11;53389.44;;;-146.77;55.77
55410;BME280;41279;43.546;16.426;2022-08-19T00:54:38;53379.41;;;-146.77;54.00
55410;BME280;41279;43.546;16.426;2022-08-19T00:57:06;53327.34;;;-146.77;53.88
55410;BME280;41279;43.546;16.426;2022-08-19T00:59:35;53363.41;;;-146.77;53.55
55410;BME280;41279;43.546;16.426;2022-08-19T01:02:03;53371.41;;;-146.77;54.15
55410;BME280;41279;43.546;16.426;2022-08-19T01:04:28;53337.38;;;-146.77;53.97
55410;BME280;41279;43.546;16.426;2022-08-19T01:07:01;53341.38;;;-146.77;53.72
55410;BME280;41279;43.546;16.426;2022-08-19T01:09:27;53387.44;;;-146.77;54.86
55410;BME280;41279;43.546;16.426;2022-08-19T01:11:53;53357.38;;;-146.77;54.01
55410;BME280;41279;43.546;16.426;2022-08-19T01:14:19;53379.41;;;-146.77;52.92
55410;BME280;41279;43.546;16.426;2022-08-19T01:16:45;53359.41;;;-146.77;54.40
55410;BME280;41279;43.546;16.426;2022-08-19T01:19:28;53329.34;;;-146.77;55.18
55410;BME280;41279;43.546;16.426;2022-08-19T01:22:03;53477.53;;;-146.77;62.00
55410;BME280;41279;43.546;16.426;2022-08-19T01:24:31;53395.44;;;-146.77;58.91
55410;BME280;41279;43.546;16.426;2022-08-19T01:26:57;53421.47;;;-146.77;58.79
55410;BME280;41279;43.546;16.426;2022-08-19T01:29:22;53405.44;;;-146.77;57.80
55410;BME280;41279;43.546;16.426;2022-08-19T01:31:47;53413.47;;;-146.77;57.28
55410;BME280;41279;43.546;16.426;2022-08-19T01:34:14;54026.28;;;-146.77;75.96
55410;BME280;41279;43.546;16.426;2022-08-19T01:36:44;54200.53;;;-146.77;80.55
55410;BME280;41279;43.546;16.426;2022-08-19T01:39:20;53978.22;;;-146.77;77.95
55410;BME280;41279;43.546;16.426;2022-08-19T01:41:46;54941.69;;;-146.77;93.01
55410;BME280;41279;43.546;16.426;2022-08-19T01:44:12;54967.75;;;-146.77;94.18
55410;BME280;41279;43.546;16.426;2022-08-19T01:46:38;54585.13;;;-146.77;88.82
55410;BME280;41279;43.546;16.426;2022-08-19T01:49:04;54428.88;;;-146.77;86.24
55410;BME280;41279;43.546;16.426;2022-08-19T01:51:37;54226.56;;;-146.77;82.11
55410;BME280;41279;43.546;16.426;2022-08-19T01:54:03;54138.44;;;-146.77;79.55
55410;BME280;41279;43.546;16.426;2022-08-19T01:56:28;54114.41;;;-146.77;79.07
55410;BME280;41279;43.546;16.426;2022-08-19T01:59:00;53988.22;;;-146.77;78.13
55410;BME280;41279;43.546;16.426;2022-08-19T02:01:27;53980.22;;;-146.77;76.72
55410;BME280;41279;43.546;16.426;2022-08-19T02:03:52;53894.09;;;-146.77;73.74
55410;BME280;41279;43.546;16.426;2022-08-19T02:06:20;54014.28;;;-146.77;77.07
55410;BME280;41279;43.546;16.426;2022-08-19T02:08:46;53886.09;;;-146.77;74.84
55410;BME280;41279;43.546;16.426;2022-08-19T02:11:23;53828.00;;;-146.77;76.42
55410;BME280;41279;43.546;16.426;2022-08-19T02:13:52;53874.06;;;-146.77;75.17
55410;BME280;41279;43.546;16.426;2022-08-19T02:16:18;53816.00;;;-146.77;71.66
55410;BME280;41279;43.546;16.426;2022-08-19T02:18:44;53836.03;;;-146.77;73.69
55410;BME280;41279;43.546;16.426;2022-08-19T02:21:10;53689.81;;;-146.77;73.19
55410;BME280;41279;43.546;16.426;2022-08-19T02:23:36;53697.84;;;-146.77;71.63
55410;BME280;41279;43.546;16.426;2022-08-19T02:26:01;53533.63;;;-146.77;67.59
55410;BME280;41279;43.546;16.426;2022-08-19T02:28:26;53509.59;;;-146.77;64.89
55410;BME280;41279;43.546;16.426;2022-08-19T02:30:52;53475.53;;;-146.77;62.56
55410;BME280;41279;43.546;16.426;2022-08-19T02:33:17;53469.53;;;-146.77;62.26
55410;BME280;41279;43.546;16.426;2022-08-19T02:35:44;53427.47;;;-146.77;61.45
55410;BME280;41279;43.546;16.426;2022-08-19T02:38:11;53411.47;;;-146.77;58.62
55410;BME280;41279;43.546;16.426;2022-08-19T02:41:00;53423.47;;;-146.77;58.32
55410;BME280;41279;43.546;16.426;2022-08-19T02:43:27;53385.44;;;-146.77;56.64
55410;BME280;41279;43.546;16.426;2022-08-19T02:45:53;53445.50;;;-146.77;64.59
55410;BME280;41279;43.546;16.426;2022-08-19T02:48:21;53467.53;;;-146.77;62.64
55410;BME280;41279;43.546;16.426;2022-08-19T02:50:47;53467.53;;;-146.77;61.19
55410;BME280;41279;43.546;16.426;2022-08-19T02:53:15;53411.47;;;-146.77;59.13
55410;BME280;41279;43.546;16.426;2022-08-19T02:55:46;53453.50;;;-146.77;59.72
55410;BME280;41279;43.546;16.426;2022-08-19T02:58:13;53431.47;;;-146.77;57.60
55410;BME280;41279;43.546;16.426;2022-08-19T03:00:48;53647.75;;;-146.77;65.02
55410;BME280;41279;43.546;16.426;2022-08-19T03:03:14;53637.75;;;-146.77;67.15
55410;BME280;41279;43.546;16.426;2022-08-19T03:05:40;54501.00;;;-146.77;87.81
55410;BME280;41279;43.546;16.426;2022-08-19T03:08:06;55101.97;;;-146.77;99.26
55410;BME280;41279;43.546;16.426;2022-08-19T03:10:32;53807.97;;;-146.77;76.17
55410;BME280;41279;43.546;16.426;2022-08-19T03:12:58;53433.47;;;-146.77;64.34
55410;BME280;41279;43.546;16.426;2022-08-19T03:15:23;53421.47;;;-146.77;60.90
55410;BME280;41279;43.546;16.426;2022-08-19T03:17:49;53395.44;;;-146.77;58.66
55410;BME280;41279;43.546;16.426;2022-08-19T03:20:14;53457.53;;;-146.77;61.15
55410;BME280;41279;43.546;16.426;2022-08-19T03:22:40;53443.50;;;-146.77;62.23
55410;BME280;41279;43.546;16.426;2022-08-19T03:25:05;53609.72;;;-146.77;66.70
55410;BME280;41279;43.546;16.426;2022-08-19T03:27:31;53499.56;;;-146.77;63.54
55410;BME280;41279;43.546;16.426;2022-08-19T03:29:56;53591.69;;;-146.77;69.64
55410;BME280;41279;43.546;16.426;2022-08-19T03:32:21;53519.59;;;-146.77;67.78
55410;BME280;41279;43.546;16.426;2022-08-19T03:34:47;53603.72;;;-146.77;67.76
55410;BME280;41279;43.546;16.426;2022-08-19T03:37:13;53635.75;;;-146.77;69.18
55410;BME280;41279;43.546;16.426;2022-08-19T03:39:39;53687.81;;;-146.77;68.56
55410;BME280;41279;43.546;16.426;2022-08-19T03:42:05;53713.84;;;-146.77;69.44
55410;BME280;41279;43.546;16.426;2022-08-19T03:44:31;53725.88;;;-146.77;67.17
55410;BME280;41279;43.546;16.426;2022-08-19T03:47:02;53773.94;;;-146.77;69.00
55410;BME280;41279;43.546;16.426;2022-08-19T03:49:29;53701.84;;;-146.77;66.03
55410;BME280;41279;43.546;16.426;2022-08-19T03:51:57;53761.91;;;-146.77;65.23
55410;BME280;41279;43.546;16.426;2022-08-19T03:54:24;53753.91;;;-146.77;65.35
55410;BME280;41279;43.546;16.426;2022-08-19T03:56:51;53743.91;;;-146.77;65.85
55410;BME280;41279;43.546;16.426;2022-08-19T03:59:24;53691.81;;;-146.77;69.57
55410;BME280;41279;43.546;16.426;2022-08-19T04:01:50;53820.00;;;-146.77;70.34
55410;BME280;41279;43.546;16.426;2022-08-19T04:04:15;53896.09;;;-146.77;71.83
55410;BME280;41279;43.546;16.426;2022-08-19T04:06:41;53890.09;;;-146.77;72.21
55410;BME280;41279;43.546;16.426;2022-08-19T04:09:10;53882.09;;;-146.77;71.70
55410;BME280;41279;43.546;16.426;2022-08-19T04:11:42;53852.03;;;-146.77;69.66
55410;BME280;41279;43.546;16.426;2022-08-19T04:14:09;54042.31;;;-146.77;73.05
55410;BME280;41279;43.546;16.426;2022-08-19T04:16:35;53974.22;;;-146.77;72.98
55410;BME280;41279;43.546;16.426;2022-08-19T04:19:03;54503.00;;;-146.77;85.59
55410;BME280;41279;43.546;16.426;2022-08-19T04:21:30;54368.78;;;-146.77;82.09
55410;BME280;41279;43.546;16.426;2022-08-19T04:23:56;55162.06;;;-146.77;92.02
55410;BME280;41279;43.546;16.426;2022-08-19T04:26:24;55670.97;;;-146.77;97.57
55410;BME280;41279;43.546;16.426;2022-08-19T04:28:51;55743.09;;;-146.77;100.00
55410;BME280;41279;43.546;16.426;2022-08-19T04:31:25;55053.88;;;-146.77;93.44
55410;BME280;41279;43.546;16.426;2022-08-19T04:33:55;54492.97;;;-146.77;86.61
55410;BME280;41279;43.546;16.426;2022-08-19T04:36:24;54322.72;;;-146.77;82.85
55410;BME280;41279;43.546;16.426;2022-08-19T04:38:53;54222.56;;;-146.77;82.45
55410;BME280;41279;43.546;16.426;2022-08-19T04:41:20;54090.38;;;-146.77;79.99
55410;BME280;41279;43.546;16.426;2022-08-19T04:44:04;54008.25;;;-146.77;77.52
55410;BME280;41279;43.546;16.426;2022-08-19T04:46:30;54072.34;;;-146.77;74.45
55410;BME280;41279;43.546;16.426;2022-08-19T04:48:58;53968.19;;;-146.77;71.30
55410;BME280;41279;43.546;16.426;2022-08-19T04:51:23;54312.69;;;-146.77;79.28
55410;BME280;41279;43.546;16.426;2022-08-19T04:53:49;54432.88;;;-146.77;80.40
55410;BME280;41279;43.546;16.426;2022-08-19T04:56:16;54759.41;;;-146.77;85.99
55410;BME280;41279;43.546;16.426;2022-08-19T04:58:43;54256.63;;;-146.77;80.60
55410;BME280;41279;43.546;16.426;2022-08-19T05:01:12;54364.78;;;-146.77;82.49
55410;BME280;41279;43.546;16.426;2022-08-19T05:03:38;54352.75;;;-146.77;82.39
55410;BME280;41279;43.546;16.426;2022-08-19T05:06:10;54188.53;;;-146.77;79.34
55410;BME280;41279;43.546;16.426;2022-08-19T05:08:37;54262.63;;;-146.77;78.82
55410;BME280;41279;43.546;16.426;2022-08-19T05:11:10;54240.59;;;-146.77;77.48
55410;BME280;41279;43.546;16.426;2022-08-19T05:13:36;54581.13;;;-146.77;83.57
55410;BME280;41279;43.546;16.426;2022-08-19T05:16:02;55107.97;;;-146.77;90.72
55410;BME280;41279;43.546;16.426;2022-08-19T05:18:28;55017.81;;;-146.77;88.66
55410;BME280;41279;43.546;16.426;2022-08-19T05:21:14;55136.03;;;-146.77;89.84
55410;BME280;41279;43.546;16.426;2022-08-19T05:23:59;56017.63;;;-146.77;97.90
55410;BME280;41279;43.546;16.426;2022-08-19T05:26:25;56053.69;;;-146.77;99.36
55410;BME280;41279;43.546;16.426;2022-08-19T05:28:52;55354.41;;;-146.77;95.65
55410;BME280;41279;43.546;16.426;2022-08-19T05:31:17;54763.41;;;-146.77;91.43
55410;BME280;41279;43.546;16.426;2022-08-19T05:33:42;54971.75;;;-146.77;90.83
55410;BME280;41279;43.546;16.426;2022-08-19T05:36:08;54697.28;;;-146.77;86.06
55410;BME280;41279;43.546;16.426;2022-08-19T05:38:34;54248.59;;;-146.77;79.77
55410;BME280;41279;43.546;16.426;2022-08-19T05:41:05;54240.59;;;-146.77;82.04
55410;BME280;41279;43.546;16.426;2022-08-19T05:43:31;54458.94;;;-146.77;86.85
55410;BME280;41279;43.546;16.426;2022-08-19T05:45:56;54370.78;;;-146.77;84.00
55410;BME280;41279;43.546;16.426;2022-08-19T05:48:22;54366.78;;;-146.77;81.51
55410;BME280;41279;43.546;16.426;2022-08-19T05:50:47;54675.25;;;-146.77;83.12
55410;BME280;41279;43.546;16.426;2022-08-19T05:53:15;55172.09;;;-146.77;88.79
55410;BME280;41279;43.546;16.426;2022-08-19T05:55:41;55957.50;;;-146.77;96.39
55410;BME280;41279;43.546;16.426;2022-08-19T05:58:06;58064.09;;;-146.77;100.00
55410;BME280;41279;43.546;16.426;2022-08-19T06:00:33;61325.38;;;-146.77;100.00
55410;BME280;41279;43.546;16.426;2022-08-19T06:02:59;88170.59;;;-146.77;100.00
55410;BME280;41279;43.546;16.426;2022-08-19T06:05:29;67030.03;;;-146.77;100.00
55410;BME280;41279;43.546;16.426;2022-08-19T06:07:54;60149.72;;;-146.77;100.00
55410;BME280;41279;43.546;16.426;2022-08-19T06:10:20;60346.31;;;-146.77;100.00
55410;BME280;41279;43.546;16.426;2022-08-19T06:12:47;58605.44;;;-146.77;100.00
55410;BME280;41279;43.546;16.426;2022-08-19T06:15:13;56091.75;;;-146.77;100.00
55410;BME280;41279;43.546;16.426;2022-08-19T06:17:39;55672.97;;;-146.77;99.52
55410;BME280;41279;43.546;16.426;2022-08-19T06:20:06;57274.25;;;-146.77;100.00
55410;BME280;41279;43.546;16.426;2022-08-19T06:22:38;57029.69;;;-146.77;100.00
55410;BME280;41279;43.546;16.426;2022-08-19T06:25:04;58858.09;;;-146.77;100.00
55410;BME280;41279;43.546;16.426;2022-08-19T06:27:29;56047.69;;;-146.77;95.50
55410;BME280;41279;43.546;16.426;2022-08-19T06:29:56;55190.13;;;-146.77;83.57
55410;BME280;41279;43.546;16.426;2022-08-19T06:32:21;55011.81;;;-146.77;77.25
55410;BME280;41279;43.546;16.426;2022-08-19T06:34:47;55246.22;;;-146.77;79.19
55410;BME280;41279;43.546;16.426;2022-08-19T06:37:12;55392.47;;;-146.77;82.69
55410;BME280;41279;43.546;16.426;2022-08-19T06:39:39;55554.75;;;-146.77;85.10
55410;BME280;41279;43.546;16.426;2022-08-19T06:42:06;55699.03;;;-146.77;89.61
55410;BME280;41279;43.546;16.426;2022-08-19T06:44:35;55666.97;;;-146.77;87.78
55410;BME280;41279;43.546;16.426;2022-08-19T06:47:07;55446.56;;;-146.77;86.45
55410;BME280;41279;43.546;16.426;2022-08-19T06:49:33;55905.41;;;-146.77;95.47
55410;BME280;41279;43.546;16.426;2022-08-19T06:51:59;56268.13;;;-146.77;98.33
55410;BME280;41279;43.546;16.426;2022-08-19T06:54:26;55522.69;;;-146.77;90.06
55410;BME280;41279;43.546;16.426;2022-08-19T06:56:51;55414.50;;;-146.77;87.46
55410;BME280;41279;43.546;16.426;2022-08-19T06:59:20;55198.13;;;-146.77;83.01
55410;BME280;41279;43.546;16.426;2022-08-19T07:01:49;55638.91;;;-146.77;88.16
55410;BME280;41279;43.546;16.426;2022-08-19T07:04:17;55867.34;;;-146.77;93.03
55410;BME280;41279;43.546;16.426;2022-08-19T07:06:43;57222.13;;;-146.77;100.00
55410;BME280;41279;43.546;16.426;2022-08-19T07:09:14;58019.97;;;-146.77;100.00
55410;BME280;41279;43.546;16.426;2022-08-19T07:11:47;98008.06;;;-146.77;100.00
55410;BME280;41279;43.546;16.426;2022-08-19T07:14:13;96453.19;;;-146.77;100.00
55410;BME280;41279;43.546;16.426;2022-08-19T07:16:39;71237.97;;;-146.77;100.00
55410;BME280;41279;43.546;16.426;2022-08-19T07:19:05;73910.19;;;-146.77;100.00
55410;BME280;41279;43.546;16.426;2022-08-19T07:21:31;77325.47;;;-146.77;100.00
55410;BME280;41279;43.546;16.426;2022-08-19T07:23:59;81195.38;;;-146.77;100.00
55410;BME280;41279;43.546;16.426;2022-08-19T07:26:29;87136.47;;;-146.77;100.00
55410;BME280;41279;43.546;16.426;2022-08-19T07:28:56;87912.03;;;-146.77;100.00
55410;BME280;41279;43.546;16.426;2022-08-19T07:31:25;100082.16;;;-146.77;100.00
55410;BME280;41279;43.546;16.426;2022-08-19T07:33:52;73024.63;;;-146.77;100.00
55410;BME280;41279;43.546;16.426;2022-08-19T07:36:23;66262.53;;;-146.77;100.00
55410;BME280;41279;43.546;16.426;2022-08-19T07:38:50;65671.91;;;-146.77;100.00
55410;BME280;41279;43.546;16.426;2022-08-19T07:41:24;71748.94;;;-146.77;100.00
55410;BME280;41279;43.546;16.426;2022-08-19T07:44:00;69621.03;;;-146.77;100.00
55410;BME280;41279;43.546;16.426;2022-08-19T07:46:32;64802.22;;;-146.77;100.00
55410;BME280;41279;43.546;16.426;2022-08-19T07:48:58;68101.22;;;-146.77;100.00
55410;BME280;41279;43.546;16.426;2022-08-19T07:51:23;71221.88;;;-146.77;100.00
55410;BME280;41279;43.546;16.426;2022-08-19T07:53:49;74622.81;;;-146.77;100.00
55410;BME280;41279;43.546;16.426;2022-08-19T07:56:17;67377.69;;;-146.77;100.00
55410;BME280;41279;43.546;16.426;2022-08-19T07:58:45;72847.53;;;-146.77;100.00
55410;BME280;41279;43.546;16.426;2022-08-19T08:01:26;67323.44;;;-146.77;100.00
55410;BME280;41279;43.546;16.426;2022-08-19T08:03:54;61481.91;;;-146.77;100.00
55410;BME280;41279;43.546;16.426;2022-08-19T08:06:38;57747.31;;;-146.77;100.00
55410;BME280;41279;43.546;16.426;2022-08-19T08:09:23;58984.44;;;-146.77;100.00
55410;BME280;41279;43.546;16.426;2022-08-19T08:11:51;62800.47;;;-146.77;100.00
55410;BME280;41279;43.546;16.426;2022-08-19T08:14:27;62348.84;;;-146.77;100.00
55410;BME280;41279;43.546;16.426;2022-08-19T08:16:52;60468.69;;;-146.77;100.00
55410;BME280;41279;43.546;16.426;2022-08-19T08:19:21;59158.91;;;-146.77;100.00
55410;BME280;41279;43.546;16.426;2022-08-19T08:21:47;56131.84;;;-146.77;100.00
55410;BME280;41279;43.546;16.426;2022-08-19T08:24:13;55057.88;;;-146.77;94.93
55410;BME280;41279;43.546;16.426;2022-08-19T08:26:39;54905.63;;;-146.77;91.39
55410;BME280;41279;43.546;16.426;2022-08-19T08:29:05;54905.63;;;-146.77;88.00
55410;BME280;41279;43.546;16.426;2022-08-19T08:31:33;54909.66;;;-146.77;88.43
55410;BME280;41279;43.546;16.426;2022-08-19T08:33:59;54769.41;;;-146.77;88.04
55410;BME280;41279;43.546;16.426;2022-08-19T08:36:24;54937.69;;;-146.77;86.96
55410;BME280;41279;43.546;16.426;2022-08-19T08:38:50;55398.47;;;-146.77;89.77
55410;BME280;41279;43.546;16.426;2022-08-19T08:41:23;57013.66;;;-146.77;100.00
55410;BME280;41279;43.546;16.426;2022-08-19T08:43:53;59148.88;;;-146.77;100.00
55410;BME280;41279;43.546;16.426;2022-08-19T08:52:13;57282.25;;;-146.77;100.00
55410;BME280;41279;43.546;16.426;2022-08-19T08:54:43;55292.28;;;-146.77;88.18
55410;BME280;41279;43.546;16.426;2022-08-19T08:57:18;54999.78;;;-146.77;82.55
55410;BME280;41279;43.546;16.426;2022-08-19T08:59:47;55266.25;;;-146.77;85.58
55410;BME280;41279;43.546;16.426;2022-08-19T09:02:17;57242.16;;;-146.77;100.00
55410;BME280;41279;43.546;16.426;2022-08-19T09:04:43;55855.31;;;-146.77;93.50
55410;BME280;41279;43.546;16.426;2022-08-19T09:09:43;60348.31;;;-146.77;100.00
55410;BME280;41279;43.546;16.426;2022-08-19T09:12:20;57508.78;;;-146.77;100.00
55410;BME280;41279;43.546;16.426;2022-08-19T09:14:55;57845.56;;;-146.77;100.00
55410;BME280;41279;43.546;16.426;2022-08-19T09:17:28;56739.06;;;-146.77;100.00
55410;BME280;41279;43.546;16.426;2022-08-19T09:20:14;55009.81;;;-146.77;92.66
55410;BME280;41279;43.546;16.426;2022-08-19T09:22:42;55196.13;;;-146.77;94.80
55410;BME280;41279;43.546;16.426;2022-08-19T09:25:13;53769.94;;;-146.77;60.71
55410;BME280;41279;43.546;16.426;2022-08-19T09:27:40;53960.19;;;-146.77;64.48
55410;BME280;41279;43.546;16.426;2022-08-19T09:30:07;54088.38;;;-146.77;73.03
55410;BME280;41279;43.546;16.426;2022-08-19T09:32:33;54286.66;;;-146.77;78.67
55410;BME280;41279;43.546;16.426;2022-08-19T09:34:59;54202.53;;;-146.77;77.35
55410;BME280;41279;43.546;16.426;2022-08-19T09:37:25;54114.41;;;-146.77;74.13
55410;BME280;41279;43.546;16.426;2022-08-19T09:39:51;54136.44;;;-146.77;74.52
55410;BME280;41279;43.546;16.426;2022-08-19T09:42:17;54128.44;;;-146.77;75.36
55410;BME280;41279;43.546;16.426;2022-08-19T09:44:43;54184.50;;;-146.77;76.35
55410;BME280;41279;43.546;16.426;2022-08-19T09:47:11;54236.59;;;-146.77;75.81
55410;BME280;41279;43.546;16.426;2022-08-19T09:49:37;54122.41;;;-146.77;75.95
55410;BME280;41279;43.546;16.426;2022-08-19T09:52:04;54224.56;;;-146.77;77.19
55410;BME280;41279;43.546;16.426;2022-08-19T09:54:30;54392.81;;;-146.77;78.85
55410;BME280;41279;43.546;16.426;2022-08-19T09:56:58;54382.81;;;-146.77;78.88
55410;BME280;41279;43.546;16.426;2022-08-19T09:59:25;54392.81;;;-146.77;78.80
55410;BME280;41279;43.546;16.426;2022-08-19T10:01:50;54284.66;;;-146.77;76.78
55410;BME280;41279;43.546;16.426;2022-08-19T10:04:16;54212.56;;;-146.77;74.01
55410;BME280;41279;43.546;16.426;2022-08-19T10:06:42;54250.63;;;-146.77;70.89
55410;BME280;41279;43.546;16.426;2022-08-19T10:09:09;54354.75;;;-146.77;76.68
55410;BME280;41279;43.546;16.426;2022-08-19T10:11:36;54454.91;;;-146.77;76.30
55410;BME280;41279;43.546;16.426;2022-08-19T10:14:03;54182.50;;;-146.77;71.81
55410;BME280;41279;43.546;16.426;2022-08-19T10:16:31;54280.66;;;-146.77;75.22
55410;BME280;41279;43.546;16.426;2022-08-19T10:18:57;54468.94;;;-146.77;77.47
55410;BME280;41279;43.546;16.426;2022-08-19T10:21:26;54539.03;;;-146.77;78.28
55410;BME280;41279;43.546;16.426;2022-08-19T10:23:54;54378.81;;;-146.77;76.06
55410;BME280;41279;43.546;16.426;2022-08-19T10:26:29;54396.84;;;-146.77;76.94
55410;BME280;41279;43.546;16.426;2022-08-19T10:28:56;54394.81;;;-146.77;74.78
55410;BME280;41279;43.546;16.426;2022-08-19T10:31:26;54312.69;;;-146.77;71.83
55410;BME280;41279;43.546;16.426;2022-08-19T10:33:52;54344.75;;;-146.77;72.11
55410;BME280;41279;43.546;16.426;2022-08-19T10:36:27;54206.53;;;-146.77;72.87
55410;BME280;41279;43.546;16.426;2022-08-19T10:38:55;54164.47;;;-146.77;69.72
55410;BME280;41279;43.546;16.426;2022-08-19T10:41:33;54128.44;;;-146.77;66.08
55410;BME280;41279;43.546;16.426;2022-08-19T10:44:03;54168.50;;;-146.77;65.05
55410;BME280;41279;43.546;16.426;2022-08-19T10:46:30;54390.81;;;-146.77;72.82
55410;BME280;41279;43.546;16.426;2022-08-19T10:48:58;54366.78;;;-146.77;71.72
55410;BME280;41279;43.546;16.426;2022-08-19T10:51:24;54112.41;;;-146.77;66.70
55410;BME280;41279;43.546;16.426;2022-08-19T10:54:08;54086.38;;;-146.77;65.82
55410;BME280;41279;43.546;16.426;2022-08-19T10:56:33;54016.28;;;-146.77;64.70
55410;BME280;41279;43.546;16.426;2022-08-19T10:59:23;54068.34;;;-146.77;63.84
55410;BME280;41279;43.546;16.426;2022-08-19T11:01:50;54100.38;;;-146.77;62.90
55410;BME280;41279;43.546;16.426;2022-08-19T11:04:16;54066.34;;;-146.77;64.89
55410;BME280;41279;43.546;16.426;2022-08-19T11:06:44;54935.69;;;-146.77;78.67
55410;BME280;41279;43.546;16.426;2022-08-19T11:09:12;55083.94;;;-146.77;82.77
55410;BME280;41279;43.546;16.426;2022-08-19T11:11:38;55109.97;;;-146.77;78.34
55410;BME280;41279;43.546;16.426;2022-08-19T11:14:08;55234.19;;;-146.77;78.93
55410;BME280;41279;43.546;16.426;2022-08-19T11:16:35;55027.84;;;-146.77;73.31
55410;BME280;41279;43.546;16.426;2022-08-19T11:19:00;54609.16;;;-146.77;69.43
55410;BME280;41279;43.546;16.426;2022-08-19T11:21:33;54689.28;;;-146.77;62.62
55410;BME280;41279;43.546;16.426;2022-08-19T11:24:02;54587.13;;;-146.77;62.51
55410;BME280;41279;43.546;16.426;2022-08-19T11:26:30;54410.84;;;-146.77;60.90
55410;BME280;41279;43.546;16.426;2022-08-19T11:28:57;54507.00;;;-146.77;63.26
55410;BME280;41279;43.546;16.426;2022-08-19T11:31:26;54673.25;;;-146.77;62.01
55410;BME280;41279;43.546;16.426;2022-08-19T11:33:52;54571.09;;;-146.77;60.48
55410;BME280;41279;43.546;16.426;2022-08-19T11:36:20;55590.81;;;-146.77;80.55
55410;BME280;41279;43.546;16.426;2022-08-19T11:38:49;56486.56;;;-146.77;86.16
55410;BME280;41279;43.546;16.426;2022-08-19T11:41:23;56073.72;;;-146.77;80.88
55410;BME280;41279;43.546;16.426;2022-08-19T11:43:49;55833.28;;;-146.77;74.81
55410;BME280;41279;43.546;16.426;2022-08-19T11:46:16;55795.19;;;-146.77;72.40
55410;BME280;41279;43.546;16.426;2022-08-19T11:48:42;55542.72;;;-146.77;68.10
55410;BME280;41279;43.546;16.426;2022-08-19T11:51:14;55638.91;;;-146.77;69.01
55410;BME280;41279;43.546;16.426;2022-08-19T11:53:54;55857.31;;;-146.77;71.81
55410;BME280;41279;43.546;16.426;2022-08-19T11:56:21;55761.13;;;-146.77;70.20
55410;BME280;41279;43.546;16.426;2022-08-19T11:58:47;55594.84;;;-146.77;72.61
55410;BME280;41279;43.546;16.426;2022-08-19T12:01:16;55905.41;;;-146.77;74.25
55410;BME280;41279;43.546;16.426;2022-08-19T12:03:43;55438.53;;;-146.77;71.52
55410;BME280;41279;43.546;16.426;2022-08-19T12:06:12;55546.75;;;-146.77;74.28
55410;BME280;41279;43.546;16.426;2022-08-19T12:08:39;55410.50;;;-146.77;74.63
55410;BME280;41279;43.546;16.426;2022-08-19T12:11:05;55178.09;;;-146.77;72.15
55410;BME280;41279;43.546;16.426;2022-08-19T12:13:33;54809.47;;;-146.77;67.61
55410;BME280;41279;43.546;16.426;2022-08-19T12:15:58;55063.91;;;-146.77;66.63
55410;BME280;41279;43.546;16.426;2022-08-19T12:18:24;55304.31;;;-146.77;70.21
55410;BME280;41279;43.546;16.426;2022-08-19T12:20:51;55126.00;;;-146.77;69.43
55410;BME280;41279;43.546;16.426;2022-08-19T12:23:17;54805.47;;;-146.77;61.18
55410;BME280;41279;43.546;16.426;2022-08-19T12:25:45;55109.97;;;-146.77;57.06
55410;BME280;41279;43.546;16.426;2022-08-19T12:28:21;54899.63;;;-146.77;53.62
55410;BME280;41279;43.546;16.426;2022-08-19T12:30:48;54861.56;;;-146.77;59.31
55410;BME280;41279;43.546;16.426;2022-08-19T12:33:15;54855.56;;;-146.77;60.05
55410;BME280;41279;43.546;16.426;2022-08-19T12:35:42;55424.53;;;-146.77;77.48
55410;BME280;41279;43.546;16.426;2022-08-19T12:38:10;55204.13;;;-146.77;75.11
55410;BME280;41279;43.546;16.426;2022-08-19T12:40:36;55436.53;;;-146.77;71.52